createdAt,value
2018-05-02T00:02:12.054Z,6.30
2018-05-02T00:06:55.382Z,6.30
2018-05-02T00:11:39.489Z,6.20
2018-05-02T00:16:22.813Z,6.20
2018-05-02T00:21:07.118Z,6.10
2018-05-02T00:25:50.419Z,6.10
2018-05-02T00:30:33.795Z,6.10
2018-05-02T00:35:17.101Z,6.20
2018-05-02T00:40:00.401Z,6.20
2018-05-02T00:44:44.465Z,6.00
2018-05-02T00:49:28.590Z,5.90
2018-05-02T00:54:11.882Z,5.90
2018-05-02T00:58:55.262Z,5.90
2018-05-02T01:03:38.592Z,5.80
2018-05-02T01:08:21.966Z,5.70
2018-05-02T01:13:06.281Z,5.70
2018-05-02T01:17:49.567Z,5.70
2018-05-02T01:22:32.875Z,5.60
2018-05-02T01:27:16.195Z,5.50
2018-05-02T01:31:59.527Z,5.60
2018-05-02T01:36:43.575Z,5.40
2018-05-02T01:41:26.906Z,5.40
2018-05-02T01:46:10.960Z,5.40
2018-05-02T01:50:55.043Z,5.50
2018-05-02T01:55:38.357Z,5.50
2018-05-02T02:00:22.452Z,5.60
2018-05-02T02:05:05.759Z,5.60
2018-05-02T02:09:49.111Z,5.70
2018-05-02T02:14:33.216Z,5.70
2018-05-02T02:19:16.495Z,5.70
2018-05-02T02:23:59.845Z,5.80
2018-05-02T02:28:43.888Z,6.00
2018-05-02T02:33:27.988Z,6.20
2018-05-02T02:38:11.297Z,6.20
2018-05-02T02:42:54.631Z,6.40
2018-05-02T02:47:37.927Z,6.40
2018-05-02T02:52:21.215Z,6.40
2018-05-02T02:57:04.522Z,6.40
2018-05-02T03:01:47.864Z,6.40
2018-05-02T03:06:31.198Z,6.40
2018-05-02T03:11:14.524Z,6.40
2018-05-02T03:15:57.819Z,6.40
2018-05-02T03:20:41.150Z,6.30
2018-05-02T03:25:24.447Z,6.40
2018-05-02T03:30:07.836Z,6.40
2018-05-02T03:34:51.892Z,6.70
2018-05-02T03:39:35.172Z,6.70
2018-05-02T03:44:18.520Z,6.80
2018-05-02T03:49:01.807Z,6.90
2018-05-02T03:53:45.166Z,7.00
2018-05-02T03:58:28.494Z,7.20
2018-05-02T04:03:23.597Z,7.30
2018-05-02T04:08:07.660Z,7.60
2018-05-02T04:12:51.009Z,7.60
2018-05-02T04:17:35.029Z,7.80
2018-05-02T04:22:18.335Z,7.80
2018-05-02T04:27:01.619Z,7.90
2018-05-02T04:31:44.999Z,7.90
2018-05-02T04:36:28.379Z,7.90
2018-05-02T04:41:11.732Z,7.90
2018-05-02T04:45:55.009Z,8.00
2018-05-02T04:50:39.074Z,8.00
2018-05-02T04:55:22.401Z,8.00
2018-05-02T05:00:05.714Z,8.00
2018-05-02T05:04:49.002Z,8.10
2018-05-02T05:09:32.339Z,8.10
2018-05-02T05:14:15.660Z,8.00
2018-05-02T05:18:59.775Z,8.20
2018-05-02T05:23:43.088Z,8.20
2018-05-02T05:28:26.432Z,8.50
2018-05-02T05:33:09.771Z,8.90
2018-05-02T05:37:53.075Z,9.30
2018-05-02T05:42:37.186Z,9.70
2018-05-02T05:47:20.501Z,9.60
2018-05-02T05:52:03.817Z,9.70
2018-05-02T05:56:47.110Z,9.90
2018-05-02T06:01:30.485Z,10.20
2018-05-02T06:06:13.783Z,10.40
2018-05-02T06:10:57.121Z,10.50
2018-05-02T06:15:40.480Z,10.30
2018-05-02T06:20:23.781Z,10.40
2018-05-02T06:25:07.104Z,10.40
2018-05-02T06:29:50.414Z,10.20
2018-05-02T06:34:33.774Z,10.00
2018-05-02T06:39:17.991Z,9.70
2018-05-02T06:44:01.280Z,9.70
2018-05-02T06:48:44.676Z,9.70
2018-05-02T06:53:28.031Z,9.60
2018-05-02T06:58:11.321Z,9.70
2018-05-02T07:02:54.612Z,9.60
2018-05-02T07:07:37.998Z,9.50
2018-05-02T07:12:21.380Z,9.60
2018-05-02T07:17:04.899Z,9.60
2018-05-02T07:21:48.223Z,9.70
2018-05-02T07:26:31.575Z,9.90
2018-05-02T07:31:14.909Z,10.00
2018-05-02T07:35:58.223Z,10.00
2018-05-02T07:40:41.603Z,10.10
2018-05-02T07:45:24.955Z,10.30
2018-05-02T07:50:08.328Z,10.20
2018-05-02T07:54:51.639Z,10.20
2018-05-02T07:59:35.098Z,10.40
2018-05-02T08:04:18.404Z,11.00
2018-05-02T08:09:01.751Z,11.70
2018-05-02T08:13:45.077Z,12.40
2018-05-02T08:18:28.480Z,13.20
2018-05-02T08:23:11.769Z,14.00
2018-05-02T08:27:55.108Z,14.50
2018-05-02T08:32:38.426Z,14.50
2018-05-02T08:37:22.676Z,14.80
2018-05-02T08:42:06.270Z,15.00
2018-05-02T08:46:49.716Z,15.30
2018-05-02T08:51:33.102Z,15.30
2018-05-02T08:56:16.570Z,15.80
2018-05-02T09:00:59.899Z,16.40
2018-05-02T09:05:44.053Z,17.60
2018-05-02T09:10:27.445Z,17.60
2018-05-02T09:15:10.802Z,18.00
2018-05-02T09:19:54.966Z,18.50
2018-05-02T09:24:38.276Z,18.50
2018-05-02T09:29:22.418Z,19.30
2018-05-02T09:34:05.804Z,19.30
2018-05-02T09:38:49.164Z,19.70
2018-05-02T09:43:33.267Z,19.40
2018-05-02T09:48:16.598Z,19.40
2018-05-02T09:52:59.942Z,19.20
2018-05-02T09:57:43.431Z,19.40
2018-05-02T10:02:26.827Z,19.40
2018-05-02T10:07:10.192Z,19.60
2018-05-02T10:11:53.586Z,20.10
2018-05-02T10:16:37.704Z,20.40
2018-05-02T10:21:20.999Z,20.40
2018-05-02T10:26:04.309Z,20.60
2018-05-02T10:30:48.380Z,20.50
2018-05-02T10:35:31.690Z,20.50
2018-05-02T10:40:14.993Z,20.40
2018-05-02T10:44:58.334Z,20.60
2018-05-02T10:49:41.650Z,20.60
2018-05-02T10:54:24.987Z,21.40
2018-05-02T10:59:08.307Z,22.70
2018-05-02T11:03:52.370Z,24.00
2018-05-02T11:08:35.679Z,23.90
2018-05-02T11:13:19.047Z,23.90
2018-05-02T11:18:03.131Z,24.00
2018-05-02T11:22:46.468Z,23.90
2018-05-02T11:27:29.756Z,24.10
2018-05-02T11:32:13.100Z,23.50
2018-05-02T11:36:56.539Z,22.40
2018-05-02T11:41:39.975Z,22.10
2018-05-02T11:46:23.299Z,22.30
2018-05-02T11:51:07.450Z,22.30
2018-05-02T12:04:07.981Z,23.20
2018-05-02T12:08:51.398Z,23.60
2018-05-02T12:13:36.079Z,24.00
2018-05-02T12:18:19.433Z,23.60
2018-05-02T12:23:04.585Z,23.50
2018-05-02T12:27:48.161Z,22.70
2018-05-02T12:32:31.528Z,22.50
2018-05-02T12:37:14.886Z,22.70
2018-05-02T12:41:58.379Z,22.80
2018-05-02T12:46:42.514Z,22.40
2018-05-02T12:51:25.839Z,22.30
2018-05-02T12:56:10.276Z,22.20
2018-05-02T13:00:53.752Z,22.50
2018-05-02T13:05:37.107Z,23.50
2018-05-02T13:10:20.548Z,24.30
2018-05-02T13:15:03.838Z,24.80
2018-05-02T13:19:47.202Z,24.90
2018-05-02T13:24:30.542Z,24.90
2018-05-02T13:29:13.893Z,24.40
2018-05-02T13:33:57.271Z,25.30
2018-05-02T13:38:40.589Z,25.60
2018-05-02T13:43:23.933Z,25.40
2018-05-02T13:48:07.258Z,25.40
2018-05-02T13:52:53.241Z,25.20
2018-05-02T13:57:37.692Z,23.80
2018-05-02T14:02:21.042Z,23.20
2018-05-02T14:07:04.511Z,23.60
2018-05-02T14:11:47.976Z,24.50
2018-05-02T14:16:39.098Z,25.20
2018-05-02T14:21:25.058Z,25.20
2018-05-02T14:26:13.780Z,24.90
2018-05-02T14:30:57.512Z,24.10
2018-05-02T14:35:40.845Z,23.40
2018-05-02T14:40:24.210Z,22.50
2018-05-02T14:45:07.675Z,22.20
2018-05-02T14:49:51.075Z,22.20
2018-05-02T14:54:35.126Z,22.00
2018-05-02T15:04:55.663Z,21.70
2018-05-02T15:09:43.043Z,21.40
2018-05-02T15:14:29.329Z,20.80
2018-05-02T15:19:13.937Z,20.70
2018-05-02T15:23:59.294Z,20.70
2018-05-02T15:28:43.662Z,20.50
2018-05-02T15:33:28.474Z,20.50
2018-05-02T15:38:12.764Z,20.50
2018-05-02T15:42:56.120Z,20.20
2018-05-02T15:47:39.515Z,19.80
2018-05-02T15:52:23.681Z,19.40
2018-05-02T15:57:07.781Z,19.10
2018-05-02T16:01:51.129Z,19.10
2018-05-02T16:06:34.556Z,19.00
2018-05-02T16:11:17.918Z,19.10
2018-05-02T16:16:01.483Z,19.30
2018-05-02T16:20:45.779Z,19.00
2018-05-02T16:25:29.885Z,19.00
2018-05-02T16:30:13.197Z,18.90
2018-05-02T16:35:00.128Z,18.90
2018-05-02T16:39:44.472Z,18.70
2018-05-02T16:44:29.265Z,18.50
2018-05-02T16:49:12.565Z,18.70
2018-05-02T16:53:58.880Z,19.10
2018-05-02T17:03:41.642Z,19.10
2018-05-02T17:08:29.109Z,18.80
2018-05-02T17:13:13.347Z,18.60
2018-05-02T17:17:57.759Z,18.40
2018-05-02T17:28:03.392Z,18.20
2018-05-02T17:32:46.736Z,17.90
2018-05-02T17:37:30.056Z,17.70
2018-05-02T17:42:14.120Z,17.20
2018-05-02T17:46:57.547Z,17.10
2018-05-02T17:51:41.826Z,16.60
2018-05-02T17:56:26.079Z,16.40
2018-05-02T18:01:09.577Z,16.40
2018-05-02T18:05:52.950Z,16.20
2018-05-02T18:10:36.353Z,15.90
2018-05-02T18:15:19.730Z,15.80
2018-05-02T18:20:03.076Z,15.50
2018-05-02T18:24:47.206Z,15.20
2018-05-02T18:29:30.598Z,15.20
2018-05-02T18:34:14.106Z,15.00
2018-05-02T18:38:57.668Z,14.90
2018-05-02T18:43:41.844Z,14.80
2018-05-02T18:48:26.113Z,14.70
2018-05-02T18:53:09.503Z,14.60
2018-05-02T18:57:54.092Z,14.50
2018-05-02T19:02:39.670Z,14.50
2018-05-02T19:07:26.631Z,14.50
2018-05-02T19:12:10.909Z,14.40
2018-05-02T19:16:54.475Z,14.30
2018-05-02T19:21:45.179Z,13.70
2018-05-02T19:26:48.238Z,13.50
2018-05-02T19:31:37.735Z,13.50
2018-05-02T19:36:22.111Z,13.20
2018-05-02T19:41:11.892Z,12.60
2018-05-02T19:45:55.273Z,12.60
2018-05-02T19:50:38.787Z,12.60
2018-05-02T19:55:22.993Z,12.50
2018-05-02T20:00:06.501Z,12.50
2018-05-02T20:04:50.864Z,12.30
2018-05-02T20:09:40.640Z,12.00
2018-05-02T20:14:24.099Z,12.00
2018-05-02T20:19:07.526Z,11.90
2018-05-02T20:23:50.931Z,11.80
2018-05-02T20:28:34.317Z,11.80
2018-05-02T20:33:18.689Z,11.60
2018-05-02T20:38:02.118Z,11.60
2018-05-02T20:42:45.465Z,11.60
2018-05-02T20:47:28.938Z,11.60
2018-05-02T20:52:12.455Z,11.60
2018-05-02T20:56:56.633Z,11.70
2018-05-02T21:01:40.940Z,11.60
2018-05-02T21:06:24.505Z,11.60
2018-05-02T21:11:08.666Z,11.50
2018-05-02T21:15:52.030Z,11.50
2018-05-02T21:20:36.225Z,11.30
2018-05-02T21:25:20.510Z,11.60
2018-05-02T21:30:03.912Z,11.60
2018-05-02T21:34:47.304Z,11.70
2018-05-02T21:39:30.680Z,11.60
2018-05-02T21:44:14.961Z,11.70
2018-05-02T21:48:58.318Z,11.70
2018-05-02T21:53:41.668Z,11.80
2018-05-02T21:58:25.005Z,11.90
2018-05-02T22:03:08.371Z,12.00
2018-05-02T22:07:52.743Z,12.00
2018-05-02T22:12:36.127Z,12.00
2018-05-02T22:17:19.506Z,12.10
2018-05-02T22:22:02.861Z,12.20
2018-05-02T22:26:46.202Z,12.10
2018-05-02T22:31:29.553Z,12.10
2018-05-02T22:36:13.874Z,12.20
2018-05-02T22:40:57.400Z,12.20
2018-05-02T22:45:40.873Z,12.10
2018-05-02T22:50:25.269Z,12.10
2018-05-02T22:55:08.786Z,12.10
2018-05-02T22:59:52.159Z,12.20
2018-05-02T23:04:35.784Z,12.10
2018-05-02T23:09:19.143Z,12.10
2018-05-02T23:14:02.475Z,12.00
2018-05-02T23:18:45.883Z,11.80
2018-05-02T23:23:29.244Z,11.60
2018-05-02T23:28:12.600Z,11.40
2018-05-02T23:32:56.672Z,11.10
2018-05-02T23:37:40.122Z,11.10
2018-05-02T23:42:24.255Z,11.20
2018-05-02T23:47:07.636Z,11.10
2018-05-02T23:51:51.718Z,11.30
2018-05-02T23:56:35.083Z,11.20
